Time;durP1;ratioP1;P1;durP2;ratioP2;P2;SDS_P1;SDS_P2;PMS_P1;PMS_P2;Temp;Humidity;BMP_temperature;BMP_pressure;BME280_temperature;BME280_humidity;BME280_pressure;Samples;Min_cycle;Max_cycle;Signal;HPM_P1;HPM_P2
2022/03/23 00:00:43;;;;;;;17.65;16.60;;;4.40;9.00;;;;;;5014687;28;20172;-69
2022/03/23 00:03:10;;;;;;;19.40;17.95;;;4.40;9.00;;;;;;5014695;28;20195;-69
2022/03/23 00:05:41;;;;;;;18.85;17.10;;;4.40;9.20;;;;;;5014507;28;20218;-69
2022/03/23 00:08:07;;;;;;;19.63;17.85;;;4.30;9.20;;;;;;5014388;28;20169;-69
2022/03/23 00:10:34;;;;;;;20.63;18.52;;;4.30;9.20;;;;;;4997052;28;20176;-69
2022/03/23 00:13:00;;;;;;;17.75;16.65;;;4.30;9.30;;;;;;5014526;28;20176;-69
2022/03/23 00:15:25;;;;;;;18.10;16.70;;;4.20;9.50;;;;;;5014249;28;20212;-69
2022/03/23 00:17:51;;;;;;;17.30;15.77;;;4.10;9.40;;;;;;4996042;28;20805;-69
2022/03/23 00:20:17;;;;;;;17.87;16.47;;;4.10;9.60;;;;;;5014334;28;20665;-70
2022/03/23 00:22:42;;;;;;;17.73;16.53;;;4.10;9.40;;;;;;5014077;28;20202;-70
2022/03/23 00:25:08;;;;;;;18.07;16.67;;;4.10;9.50;;;;;;4996592;28;20199;-69
2022/03/23 00:27:35;;;;;;;18.02;16.75;;;4.00;9.50;;;;;;4996678;28;20187;-69
2022/03/23 00:30:01;;;;;;;19.25;17.50;;;4.00;9.60;;;;;;5013919;28;20181;-69
2022/03/23 00:32:27;;;;;;;17.63;16.38;;;3.90;9.70;;;;;;4996107;28;20661;-69
2022/03/23 00:34:52;;;;;;;18.47;17.13;;;3.90;9.80;;;;;;4996297;28;20211;-70
2022/03/23 00:37:19;;;;;;;18.63;17.43;;;3.90;9.90;;;;;;4995922;28;20187;-69
2022/03/23 00:39:45;;;;;;;18.85;17.55;;;3.80;10.00;;;;;;5013770;28;20194;-69
2022/03/23 00:42:10;;;;;;;18.20;17.07;;;3.80;10.10;;;;;;5013941;28;20180;-70
2022/03/23 00:44:36;;;;;;;18.73;17.53;;;3.80;10.20;;;;;;5013830;28;20586;-70
2022/03/23 00:47:02;;;;;;;18.23;17.00;;;3.80;10.20;;;;;;5013582;28;20203;-70
2022/03/23 00:49:28;;;;;;;17.93;16.33;;;3.70;10.20;;;;;;5013717;28;20411;-70
2022/03/23 00:51:53;;;;;;;18.47;17.17;;;3.70;10.20;;;;;;5013738;28;20223;-70
2022/03/23 00:54:20;;;;;;;17.20;16.10;;;3.70;10.50;;;;;;5013563;28;20410;-70
2022/03/23 00:56:46;;;;;;;17.25;15.98;;;3.70;10.60;;;;;;5013108;28;20196;-69
2022/03/23 00:59:13;;;;;;;17.83;16.63;;;3.70;10.30;;;;;;5013477;28;20175;-69
2022/03/23 01:01:39;;;;;;;17.40;16.23;;;3.70;10.20;;;;;;5013415;28;20176;-69
2022/03/23 01:04:05;;;;;;;18.92;17.55;;;3.70;10.20;;;;;;5013343;28;20184;-69
2022/03/23 01:06:31;;;;;;;18.23;16.98;;;3.60;10.60;;;;;;5012895;28;20587;-70
2022/03/23 01:08:57;;;;;;;19.33;18.10;;;3.70;10.40;;;;;;5013139;28;20168;-70
2022/03/23 01:11:23;;;;;;;18.20;16.90;;;3.70;10.10;;;;;;5013364;28;20180;-69
2022/03/23 01:13:48;;;;;;;17.20;15.80;;;3.80;10.20;;;;;;4995674;28;20559;-69
2022/03/23 01:16:15;;;;;;;18.37;17.23;;;3.80;10.20;;;;;;5012964;28;20211;-70
2022/03/23 01:18:40;;;;;;;19.50;17.95;;;3.70;9.90;;;;;;5013040;28;20168;-69
2022/03/23 01:21:06;;;;;;;18.40;17.13;;;3.60;10.10;;;;;;5013026;28;20234;-69
2022/03/23 01:23:32;;;;;;;17.63;16.33;;;3.60;10.20;;;;;;5012882;28;20263;-69
2022/03/23 01:25:57;;;;;;;18.07;16.50;;;3.50;10.30;;;;;;4995125;28;20633;-68
2022/03/23 01:28:23;;;;;;;18.87;17.67;;;3.50;10.70;;;;;;5011979;28;20255;-69
2022/03/23 01:30:48;;;;;;;18.30;17.03;;;3.60;10.30;;;;;;5012657;28;20176;-69
2022/03/23 01:33:14;;;;;;;17.37;16.13;;;3.60;10.30;;;;;;5012970;28;20184;-69
2022/03/23 01:35:39;;;;;;;17.40;16.23;;;3.40;10.60;;;;;;5012741;28;20762;-69
2022/03/23 01:38:05;;;;;;;17.60;16.60;;;3.40;10.60;;;;;;5012461;28;20172;-69
2022/03/23 01:40:31;;;;;;;16.60;15.40;;;3.40;11.20;;;;;;4995016;28;20180;-70
2022/03/23 01:42:56;;;;;;;17.70;16.00;;;3.50;11.30;;;;;;5012585;28;20718;-69
2022/03/23 01:45:22;;;;;;;18.50;17.00;;;3.50;11.40;;;;;;4994772;28;20449;-68
2022/03/23 01:47:48;;;;;;;19.70;18.13;;;3.50;11.40;;;;;;5012381;28;20180;-68
2022/03/23 01:50:13;;;;;;;17.23;15.73;;;3.50;11.30;;;;;;5012550;28;20172;-70
2022/03/23 01:52:40;;;;;;;18.23;16.67;;;3.50;11.50;;;;;;5012511;28;20721;-69
2022/03/23 01:55:09;;;;;;;19.60;18.20;;;3.50;11.80;;;;;;5012404;28;20194;-68
2022/03/23 01:57:35;;;;;;;19.23;17.73;;;3.40;12.10;;;;;;5012145;28;20168;-69
2022/03/23 02:00:01;;;;;;;19.05;17.30;;;3.40;12.60;;;;;;5012407;28;20178;-69
2022/03/23 02:02:27;;;;;;;17.17;16.08;;;3.40;11.80;;;;;;4994742;28;20172;-70
2022/03/23 02:04:52;;;;;;;19.73;17.73;;;3.30;11.90;;;;;;4995068;28;20245;-69
2022/03/23 02:07:19;;;;;;;17.70;16.37;;;3.20;12.00;;;;;;5011980;28;20196;-68
2022/03/23 02:09:45;;;;;;;18.23;16.60;;;3.20;12.50;;;;;;4994591;28;20172;-68
2022/03/23 02:12:11;;;;;;;17.53;16.13;;;3.20;12.30;;;;;;5012316;28;20172;-69
2022/03/23 02:14:37;;;;;;;18.73;17.20;;;3.20;12.20;;;;;;5012328;28;20168;-69
2022/03/23 02:17:03;;;;;;;17.70;16.40;;;3.10;12.20;;;;;;4994574;28;20206;-69
2022/03/23 02:19:29;;;;;;;16.75;15.70;;;3.10;12.40;;;;;;5012225;28;20219;-70
2022/03/23 02:21:54;;;;;;;19.80;18.20;;;3.10;12.30;;;;;;5012188;28;20222;-68
2022/03/23 02:24:26;;;;;;;18.20;16.60;;;3.00;12.40;;;;;;4994463;28;20184;-69
2022/03/23 02:26:53;;;;;;;17.63;16.50;;;3.00;12.50;;;;;;5011700;28;20214;-69
2022/03/23 02:29:20;;;;;;;19.50;18.00;;;2.90;12.70;;;;;;5012055;28;20234;-68
2022/03/23 02:31:46;;;;;;;19.08;17.42;;;2.90;13.00;;;;;;4994350;28;20183;-69
2022/03/23 02:34:12;;;;;;;18.00;16.70;;;2.80;12.90;;;;;;5012093;28;20180;-69
2022/03/23 02:36:38;;;;;;;16.97;15.43;;;2.70;12.90;;;;;;4994020;28;20537;-69
2022/03/23 02:39:03;;;;;;;17.10;16.00;;;2.70;12.90;;;;;;5011966;28;20428;-69
2022/03/23 02:41:29;;;;;;;17.70;16.20;;;2.70;13.00;;;;;;4997414;28;20422;-68
2022/03/23 02:43:55;;;;;;;18.10;16.60;;;2.60;12.90;;;;;;5016021;28;20218;-69
2022/03/23 02:46:21;;;;;;;17.80;16.33;;;2.60;13.10;;;;;;4997999;28;20254;-68
2022/03/23 02:48:47;;;;;;;17.00;15.37;;;2.60;13.00;;;;;;5016233;28;20630;-69
2022/03/23 02:51:14;;;;;;;16.65;15.43;;;2.60;13.20;;;;;;5015738;28;20457;-68
2022/03/23 03:02:24;;;;;;;17.75;16.55;;;2.40;13.50;;;;;;5015635;28;20274;-69
2022/03/23 03:04:50;;;;;;;18.20;17.10;;;2.30;13.60;;;;;;5015438;28;20183;-69
2022/03/23 03:07:17;;;;;;;15.90;14.90;;;2.30;13.80;;;;;;5015106;28;20208;-69
2022/03/23 03:09:43;;;;;;;17.40;16.27;;;2.30;13.90;;;;;;4997729;28;20183;-69
2022/03/23 03:12:10;;;;;;;17.73;16.53;;;2.20;13.90;;;;;;5015333;28;20176;-69
2022/03/23 03:14:36;;;;;;;16.85;15.52;;;2.20;14.10;;;;;;4997702;28;20183;-69
2022/03/23 03:17:01;;;;;;;17.50;16.20;;;2.20;13.90;;;;;;5015354;28;20188;-69
2022/03/23 03:19:27;;;;;;;17.03;15.63;;;2.20;13.70;;;;;;5015193;28;20542;-69
2022/03/23 03:21:54;;;;;;;17.53;16.13;;;2.30;14.20;;;;;;4997636;28;20553;-69
2022/03/23 03:24:20;;;;;;;15.82;14.63;;;2.30;13.40;;;;;;5015173;28;20179;-69
2022/03/23 03:26:50;;;;;;;17.77;16.42;;;2.30;13.40;;;;;;4997115;28;20246;-69
2022/03/23 03:29:16;;;;;;;17.17;15.90;;;2.30;13.90;;;;;;4997639;28;20204;-69
2022/03/23 03:31:42;;;;;;;17.10;15.90;;;2.30;13.40;;;;;;5015203;28;20287;-69
2022/03/23 03:34:08;;;;;;;17.20;16.10;;;2.30;13.60;;;;;;5015086;28;20778;-69
2022/03/23 03:36:34;;;;;;;17.40;16.10;;;2.30;13.40;;;;;;4997069;28;20195;-69
2022/03/23 03:39:00;;;;;;;16.23;15.23;;;2.30;13.70;;;;;;4997341;28;20184;-69
2022/03/23 03:41:26;;;;;;;16.00;14.90;;;2.20;13.70;;;;;;5014986;28;20204;-69
2022/03/23 03:43:51;;;;;;;22.02;16.70;;;2.20;13.70;;;;;;5014785;28;20188;-70
2022/03/23 03:46:17;;;;;;;18.57;17.00;;;2.10;14.00;;;;;;5014543;28;20313;-69
2022/03/23 03:48:43;;;;;;;18.40;16.90;;;2.10;14.60;;;;;;5014519;28;20175;-68
2022/03/23 03:51:09;;;;;;;19.40;17.70;;;2.10;14.00;;;;;;5014361;28;20200;-68
2022/03/23 03:53:36;;;;;;;17.65;16.33;;;2.10;14.00;;;;;;5014481;28;20187;-69
2022/03/23 03:56:02;;;;;;;18.20;16.40;;;2.00;14.00;;;;;;5014808;28;20222;-70
2022/03/23 03:58:28;;;;;;;17.52;16.30;;;1.90;13.90;;;;;;5014660;28;20172;-70
2022/03/23 04:00:54;;;;;;;15.93;14.83;;;1.90;13.90;;;;;;5014529;28;20182;-69
2022/03/23 04:03:20;;;;;;;18.27;16.58;;;1.90;13.90;;;;;;5014534;28;20468;-69
2022/03/23 04:05:45;;;;;;;17.90;16.27;;;1.90;13.90;;;;;;4996967;28;20625;-69
2022/03/23 04:08:11;;;;;;;19.00;17.53;;;1.90;13.90;;;;;;5014411;28;20219;-69
2022/03/23 04:10:37;;;;;;;17.97;16.37;;;1.90;14.00;;;;;;4996770;28;20176;-70
2022/03/23 04:13:03;;;;;;;16.40;15.23;;;1.90;14.10;;;;;;5014384;28;20171;-70
2022/03/23 04:15:29;;;;;;;16.98;15.68;;;1.90;14.00;;;;;;5014058;28;20449;-70
2022/03/23 04:17:55;;;;;;;16.93;15.63;;;1.80;14.30;;;;;;4996436;28;20183;-70
2022/03/23 04:20:22;;;;;;;17.53;16.03;;;1.80;14.30;;;;;;5014217;28;20175;-70
2022/03/23 04:22:48;;;;;;;18.38;16.75;;;1.90;14.30;;;;;;5014058;28;20412;-69
2022/03/23 04:25:15;;;;;;;16.07;14.77;;;1.90;14.40;;;;;;5013926;28;20250;-70
2022/03/23 04:27:49;;;;;;;17.60;16.20;;;1.90;14.60;;;;;;5013849;28;20181;-70
2022/03/23 04:30:17;;;;;;;16.73;15.43;;;1.90;14.70;;;;;;5014225;28;20229;-70
2022/03/23 04:32:44;;;;;;;16.38;15.07;;;1.80;14.80;;;;;;5013889;28;20178;-70
2022/03/23 04:35:10;;;;;;;16.05;15.00;;;1.80;15.00;;;;;;5013673;28;20598;-70
2022/03/23 04:37:35;;;;;;;17.90;16.30;;;1.80;15.40;;;;;;4996202;28;20273;-70
2022/03/23 04:40:01;;;;;;;16.60;15.53;;;1.80;14.60;;;;;;4996421;28;20190;-70
2022/03/23 04:42:26;;;;;;;18.00;16.50;;;1.80;14.50;;;;;;5013834;28;20253;-70
2022/03/23 04:44:52;;;;;;;17.70;16.13;;;1.80;14.90;;;;;;5013664;28;20260;-69
2022/03/23 04:47:17;;;;;;;16.73;15.50;;;1.80;14.90;;;;;;4995787;28;20273;-70
2022/03/23 04:49:43;;;;;;;17.73;16.23;;;1.80;15.00;;;;;;4995956;28;20185;-70
2022/03/23 04:52:08;;;;;;;17.23;15.90;;;1.70;15.00;;;;;;5013645;28;20251;-69
2022/03/23 04:54:34;;;;;;;17.87;16.27;;;1.70;15.00;;;;;;5013524;28;20189;-69
2022/03/23 04:56:59;;;;;;;16.63;15.43;;;1.60;15.10;;;;;;4995711;28;20177;-70
2022/03/23 04:59:26;;;;;;;16.50;15.10;;;1.60;14.90;;;;;;4996035;28;20182;-69
2022/03/23 05:01:52;;;;;;;18.73;17.00;;;1.60;15.00;;;;;;5013413;28;20181;-70
2022/03/23 05:04:17;;;;;;;19.07;17.67;;;1.60;15.30;;;;;;5013206;28;20178;-70
2022/03/23 05:06:44;;;;;;;16.10;14.93;;;1.60;15.10;;;;;;5012781;28;20824;-70
2022/03/23 05:09:10;;;;;;;16.37;14.93;;;1.60;15.20;;;;;;5013583;28;20454;-70
2022/03/23 05:11:35;;;;;;;15.93;14.77;;;1.60;15.10;;;;;;5013296;28;20221;-70
2022/03/23 05:14:01;;;;;;;16.10;14.90;;;1.60;15.20;;;;;;5013193;28;20202;-70
2022/03/23 05:16:26;;;;;;;17.67;16.10;;;1.60;15.30;;;;;;5013315;28;20211;-70
2022/03/23 05:18:52;;;;;;;17.83;16.30;;;1.60;15.20;;;;;;5012944;28;20172;-70
2022/03/23 05:21:17;;;;;;;17.97;16.33;;;1.60;15.40;;;;;;4995483;28;20222;-70
2022/03/23 05:23:43;;;;;;;15.60;14.40;;;1.60;15.40;;;;;;5013134;28;20213;-70
2022/03/23 05:26:09;;;;;;;17.17;15.43;;;1.70;15.00;;;;;;5012956;28;20217;-70
2022/03/23 05:28:35;;;;;;;16.38;15.00;;;1.70;15.60;;;;;;5012912;28;20229;-70
2022/03/23 05:31:00;;;;;;;16.60;15.20;;;1.70;15.20;;;;;;4995425;28;20597;-70
2022/03/23 05:33:26;;;;;;;15.50;14.40;;;1.60;15.30;;;;;;5012845;28;20698;-70
2022/03/23 05:35:51;;;;;;;16.20;15.00;;;1.70;15.40;;;;;;5012901;28;20203;-70
2022/03/23 05:38:17;;;;;;;16.77;15.30;;;1.80;14.90;;;;;;4995097;28;20314;-70
2022/03/23 05:40:42;;;;;;;15.30;14.20;;;1.90;14.80;;;;;;5012845;28;20190;-70
2022/03/23 05:43:08;;;;;;;16.97;15.57;;;1.80;15.00;;;;;;5012981;28;20191;-70
2022/03/23 05:45:35;;;;;;;16.80;15.30;;;1.80;15.00;;;;;;5012597;28;20215;-70
2022/03/23 05:48:01;;;;;;;16.35;15.23;;;1.80;15.30;;;;;;5012345;28;20183;-70
2022/03/23 05:50:27;;;;;;;17.03;15.60;;;1.80;15.20;;;;;;5013079;28;20171;-69
2022/03/23 05:52:52;;;;;;;16.90;15.33;;;1.90;14.90;;;;;;4994929;28;20454;-69
2022/03/23 05:55:18;;;;;;;15.13;14.13;;;2.00;15.40;;;;;;5012617;28;20219;-69
2022/03/23 05:57:44;;;;;;;14.37;13.30;;;2.20;15.50;;;;;;4994861;28;20183;-69
2022/03/23 06:00:10;;;;;;;15.70;14.33;;;2.20;14.90;;;;;;5012565;28;20501;-69
2022/03/23 06:02:36;;;;;;;13.55;12.52;;;2.30;15.10;;;;;;5012375;28;20172;-72
2022/03/23 06:05:02;;;;;;;15.77;14.57;;;2.50;15.10;;;;;;5012452;28;20599;-69
2022/03/23 06:07:28;;;;;;;14.15;13.18;;;2.80;14.50;;;;;;5012209;28;20584;-70
2022/03/23 06:09:54;;;;;;;15.70;14.60;;;3.30;14.60;;;;;;5012294;28;20176;-69
2022/03/23 06:12:20;;;;;;;15.37;14.23;;;3.80;14.10;;;;;;5012178;28;20169;-69
2022/03/23 06:14:47;;;;;;;14.55;13.50;;;4.40;13.30;;;;;;5011892;28;20169;-70
2022/03/23 06:17:13;;;;;;;15.60;14.60;;;5.00;12.10;;;;;;4994148;28;20202;-72
2022/03/23 06:19:38;;;;;;;16.03;15.03;;;5.70;11.30;;;;;;5012109;28;20182;-71
2022/03/23 06:22:05;;;;;;;16.07;14.77;;;6.40;10.10;;;;;;5012933;28;20435;-69
2022/03/23 06:24:31;;;;;;;16.63;15.43;;;7.10;8.90;;;;;;5012544;28;20911;-69
2022/03/23 06:26:57;;;;;;;16.83;15.40;;;7.80;7.80;;;;;;4994096;28;20477;-69
2022/03/23 06:29:23;;;;;;;17.23;16.00;;;8.40;7.00;;;;;;5012120;28;20415;-70
2022/03/23 06:31:48;;;;;;;19.07;17.63;;;9.00;4.20;;;;;;5011958;28;20596;-69
2022/03/23 06:34:14;;;;;;;18.13;17.03;;;9.50;3.70;;;;;;5012106;28;20198;-70
2022/03/23 06:36:40;;;;;;;18.83;17.30;;;10.00;2.90;;;;;;5011719;28;20197;-68
2022/03/23 06:39:06;;;;;;;20.00;18.47;;;10.60;3.00;;;;;;5012130;28;20971;-70
2022/03/23 06:41:31;;;;;;;18.67;17.27;;;11.00;1.00;;;;;;5011944;28;20189;-70
2022/03/23 06:43:57;;;;;;;18.63;17.43;;;10.90;1.00;;;;;;5012172;28;20194;-71
2022/03/23 06:46:22;;;;;;;21.57;19.80;;;10.80;1.20;;;;;;4993810;28;20208;-70
2022/03/23 06:48:48;;;;;;;19.87;18.63;;;11.20;1.00;;;;;;5011894;28;20172;-69
2022/03/23 06:51:14;;;;;;;19.73;18.17;;;11.50;1.10;;;;;;5011995;28;20243;-69
2022/03/23 06:53:41;;;;;;;22.60;20.60;;;11.70;1.00;;;;;;5011972;28;20494;-69
2022/03/23 06:56:07;;;;;;;21.10;19.17;;;11.90;1.00;;;;;;4994223;28;20438;-69
2022/03/23 06:58:33;;;;;;;21.10;19.43;;;11.90;1.00;;;;;;5011649;28;20469;-69
2022/03/23 07:01:00;;;;;;;22.37;20.77;;;11.80;1.00;;;;;;4994059;28;20438;-69
2022/03/23 07:03:25;;;;;;;21.27;19.87;;;11.50;1.00;;;;;;5011802;28;20174;-71
2022/03/23 07:05:51;;;;;;;21.23;19.80;;;11.20;1.00;;;;;;5011559;28;20809;-69
2022/03/23 07:11:01;;;;;;;19.10;18.00;;;10.70;1.00;;;;;;5011744;28;20193;-69
2022/03/23 07:13:27;;;;;;;19.43;17.97;;;10.50;1.00;;;;;;5011565;28;20413;-69
2022/03/23 07:15:53;;;;;;;19.60;18.30;;;10.20;1.00;;;;;;5011303;28;20966;-69
2022/03/23 07:18:19;;;;;;;21.83;20.33;;;9.90;1.40;;;;;;5011553;28;20474;-69
2022/03/23 07:20:44;;;;;;;19.97;18.40;;;9.70;1.90;;;;;;5012187;28;20232;-69
2022/03/23 07:23:10;;;;;;;20.80;19.00;;;9.40;1.90;;;;;;5011581;28;20262;-70
2022/03/23 07:25:35;;;;;;;21.10;19.27;;;9.20;2.40;;;;;;5011875;28;20207;-69
2022/03/23 07:28:02;;;;;;;19.77;18.47;;;9.00;2.70;;;;;;5014830;28;20208;-69
2022/03/23 07:30:29;;;;;;;18.93;17.53;;;8.80;2.50;;;;;;5015109;28;20172;-70
2022/03/23 07:32:55;;;;;;;18.23;16.80;;;8.60;2.90;;;;;;4997480;28;20423;-69
2022/03/23 07:35:21;;;;;;;20.00;18.20;;;8.50;3.00;;;;;;5014982;28;20437;-70
2022/03/23 07:37:48;;;;;;;21.73;17.93;;;8.40;3.30;;;;;;5014723;28;20236;-69
2022/03/23 07:40:13;;;;;;;20.23;19.03;;;8.30;3.90;;;;;;5014903;28;20769;-69
2022/03/23 07:42:39;;;;;;;19.93;18.40;;;8.30;4.90;;;;;;5014696;28;20465;-69
2022/03/23 07:45:05;;;;;;;21.47;19.63;;;8.40;4.30;;;;;;5014777;28;20710;-70
2022/03/23 07:47:32;;;;;;;18.57;17.47;;;8.50;4.10;;;;;;5014489;28;20743;-69
2022/03/23 07:49:57;;;;;;;23.73;19.80;;;8.50;3.80;;;;;;4997138;28;20935;-69
2022/03/23 07:52:23;;;;;;;19.13;17.73;;;8.60;4.40;;;;;;5014702;28;20411;-70
2022/03/23 07:54:48;;;;;;;21.73;20.00;;;8.70;4.00;;;;;;5014533;28;20192;-71
2022/03/23 07:57:14;;;;;;;20.17;18.57;;;8.70;4.50;;;;;;4996681;28;20184;-69
2022/03/23 07:59:40;;;;;;;21.37;19.63;;;8.70;3.40;;;;;;4996852;28;20645;-69
2022/03/23 08:02:06;;;;;;;20.40;18.90;;;8.70;3.90;;;;;;5014475;28;20465;-69
2022/03/23 08:04:32;;;;;;;31.63;19.57;;;8.80;3.20;;;;;;5014546;28;20196;-69
2022/03/23 08:07:00;;;;;;;19.80;18.27;;;9.00;3.60;;;;;;5014064;28;20456;-70
2022/03/23 08:09:26;;;;;;;19.50;18.20;;;9.20;2.30;;;;;;5014386;28;20171;-70
2022/03/23 08:11:51;;;;;;;22.60;20.60;;;9.30;3.10;;;;;;5014171;28;20407;-70
2022/03/23 08:14:17;;;;;;;20.27;18.70;;;9.40;3.90;;;;;;5014259;28;20179;-71
2022/03/23 08:16:42;;;;;;;20.87;19.37;;;9.60;4.00;;;;;;5013692;28;20624;-70
2022/03/23 08:19:08;;;;;;;22.83;20.90;;;9.70;3.70;;;;;;5014177;28;20178;-69
2022/03/23 08:21:34;;;;;;;20.93;19.43;;;9.90;3.60;;;;;;5014200;28;20232;-70
2022/03/23 08:24:00;;;;;;;20.40;19.07;;;10.20;2.60;;;;;;5014003;28;20540;-70
2022/03/23 08:26:26;;;;;;;21.80;20.20;;;10.30;2.60;;;;;;5013526;28;20475;-70
2022/03/23 08:28:52;;;;;;;20.50;19.07;;;10.40;2.30;;;;;;5013927;28;20487;-72
2022/03/23 08:31:17;;;;;;;22.20;20.50;;;10.50;1.70;;;;;;4996534;28;20172;-72
2022/03/23 08:33:43;;;;;;;20.83;19.27;;;10.60;1.10;;;;;;4996530;28;20420;-70
2022/03/23 08:36:09;;;;;;;21.03;19.73;;;10.60;1.40;;;;;;5013870;28;20600;-71
2022/03/23 08:38:35;;;;;;;21.80;20.20;;;10.70;1.40;;;;;;5013471;28;20178;-71
2022/03/23 08:41:02;;;;;;;21.43;19.63;;;10.80;1.60;;;;;;5014061;28;20189;-70
2022/03/23 08:43:27;;;;;;;22.53;20.80;;;10.80;1.80;;;;;;4996404;28;20421;-72
2022/03/23 08:45:53;;;;;;;23.33;21.63;;;10.90;1.30;;;;;;5013491;28;20580;-71
2022/03/23 08:48:19;;;;;;;22.23;20.57;;;10.70;1.30;;;;;;5013478;28;20539;-70
2022/03/23 08:50:50;;;;;;;21.97;20.37;;;10.60;1.70;;;;;;5013561;28;20443;-70
2022/03/23 08:53:16;;;;;;;23.73;21.57;;;10.50;1.50;;;;;;4996043;28;20399;-69
2022/03/23 08:55:42;;;;;;;22.03;20.43;;;10.60;2.30;;;;;;4995754;28;20982;-69
2022/03/23 08:58:08;;;;;;;23.63;21.83;;;10.70;1.20;;;;;;5013490;28;20198;-69
2022/03/23 09:00:34;;;;;;;23.37;21.67;;;10.80;1.30;;;;;;5013401;28;20908;-70
2022/03/23 09:02:59;;;;;;;20.37;18.80;;;10.90;1.60;;;;;;5013450;28;20243;-69
2022/03/23 09:05:25;;;;;;;23.30;21.43;;;11.00;2.00;;;;;;5013151;28;20592;-70
2022/03/23 09:07:50;;;;;;;21.83;20.23;;;11.10;1.00;;;;;;5013101;28;20254;-70
2022/03/23 09:10:18;;;;;;;21.87;20.57;;;11.10;1.00;;;;;;5013154;28;20170;-70
2022/03/23 09:12:44;;;;;;;20.80;19.40;;;11.20;1.50;;;;;;5013167;28;20283;-69
2022/03/23 09:15:12;;;;;;;21.43;20.10;;;11.30;1.00;;;;;;5013612;28;20433;-70
2022/03/23 09:17:38;;;;;;;23.33;21.53;;;11.40;1.20;;;;;;4995441;28;20417;-70
2022/03/23 09:20:05;;;;;;;21.60;19.77;;;11.60;1.00;;;;;;5013466;28;20787;-70
2022/03/23 09:22:34;;;;;;;22.23;20.77;;;11.60;1.00;;;;;;5013072;28;20432;-70
2022/03/23 09:25:03;;;;;;;20.07;18.97;;;11.70;1.00;;;;;;5012853;28;20445;-70
2022/03/23 09:27:32;;;;;;;21.07;19.43;;;11.80;1.00;;;;;;5012437;28;20467;-70
2022/03/23 09:29:58;;;;;;;22.20;20.50;;;11.90;1.00;;;;;;5013075;28;20422;-70
2022/03/23 09:32:23;;;;;;;21.87;20.37;;;12.00;1.00;;;;;;5012882;28;20407;-70
2022/03/23 09:34:49;;;;;;;23.30;21.70;;;12.10;1.00;;;;;;5012756;28;20564;-70
2022/03/23 09:39:59;;;;;;;22.83;20.83;;;12.30;1.00;;;;;;5013016;28;20182;-70
2022/03/23 09:42:27;;;;;;;24.73;22.67;;;12.30;1.00;;;;;;5012803;28;20419;-70
2022/03/23 09:44:55;;;;;;;22.37;20.63;;;12.30;1.00;;;;;;5012708;28;20223;-70
2022/03/23 09:47:21;;;;;;;25.00;22.97;;;12.20;1.00;;;;;;5012491;28;20458;-71
2022/03/23 09:49:46;;;;;;;23.50;21.63;;;12.30;1.00;;;;;;5011776;28;20418;-70
2022/03/23 09:52:12;;;;;;;22.27;20.63;;;12.30;1.00;;;;;;4994912;28;20550;-70
2022/03/23 09:54:38;;;;;;;22.27;20.50;;;12.40;1.00;;;;;;5012416;28;20198;-71
2022/03/23 09:57:06;;;;;;;22.80;21.10;;;12.50;1.00;;;;;;5012250;28;20281;-71
2022/03/23 09:59:32;;;;;;;23.17;21.20;;;12.70;1.00;;;;;;5012444;28;20321;-70
2022/03/23 10:02:00;;;;;;;21.67;20.03;;;12.90;1.00;;;;;;5012539;28;20526;-70
2022/03/23 10:05:14;;;;;;;23.93;22.03;;;13.00;1.00;;;;;;5012282;28;20410;-71
2022/03/23 10:08:07;;;;;;;21.70;19.97;;;13.20;1.00;;;;;;5011887;28;20468;-70
2022/03/23 10:11:18;;;;;;;22.13;20.70;;;13.30;1.00;;;;;;5012296;28;20436;-71
2022/03/23 10:14:17;;;;;;;22.37;20.80;;;13.50;1.00;;;;;;5012904;28;20413;-70
2022/03/23 10:16:54;;;;;;;24.00;22.23;;;13.70;1.00;;;;;;5011916;28;20446;-70
2022/03/23 10:19:20;;;;;;;24.13;22.27;;;13.70;1.00;;;;;;5012253;28;20407;-70
2022/03/23 10:21:45;;;;;;;21.93;20.43;;;13.80;1.00;;;;;;4994480;28;20827;-70
2022/03/23 10:24:11;;;;;;;22.60;20.90;;;13.80;1.00;;;;;;5012160;28;20207;-70
2022/03/23 10:26:38;;;;;;;21.27;19.90;;;13.80;1.00;;;;;;4994029;28;20211;-68
2022/03/23 10:29:10;;;;;;;21.70;20.20;;;13.80;1.00;;;;;;5012221;28;20175;-69
2022/03/23 10:31:36;;;;;;;21.70;20.10;;;14.00;1.00;;;;;;5012121;28;20481;-69
2022/03/23 10:34:10;;;;;;;22.13;20.43;;;14.10;1.00;;;;;;4994576;28;20767;-69
2022/03/23 10:36:38;;;;;;;20.73;19.13;;;14.20;1.00;;;;;;5011806;28;20200;-69
2022/03/23 10:39:06;;;;;;;20.03;18.83;;;14.20;1.00;;;;;;5012235;28;20446;-70
2022/03/23 10:41:32;;;;;;;19.90;18.90;;;14.30;1.00;;;;;;5011977;28;20755;-69
2022/03/23 10:43:58;;;;;;;21.20;19.60;;;14.40;1.00;;;;;;5012174;28;20414;-70
2022/03/23 10:46:25;;;;;;;20.80;19.60;;;14.50;1.00;;;;;;5011688;28;20469;-70
2022/03/23 10:48:54;;;;;;;21.83;20.60;;;14.60;1.00;;;;;;5012033;28;20420;-70
2022/03/23 10:51:27;;;;;;;22.03;20.63;;;14.70;1.00;;;;;;5012061;28;20415;-69
2022/03/23 10:53:54;;;;;;;21.90;20.07;;;14.90;1.00;;;;;;4994590;28;20803;-70
2022/03/23 10:56:31;;;;;;;21.93;20.53;;;14.90;1.00;;;;;;5011811;28;20520;-70
2022/03/23 10:59:15;;;;;;;20.80;19.50;;;15.00;1.00;;;;;;4994222;28;20433;-70
2022/03/23 11:02:03;;;;;;;20.70;19.30;;;15.00;1.00;;;;;;4995839;28;20461;-70
2022/03/23 11:04:49;;;;;;;21.57;20.33;;;15.20;1.00;;;;;;5015570;28;20417;-70
2022/03/23 11:07:27;;;;;;;19.90;18.60;;;15.20;1.00;;;;;;5015503;28;20966;-70
2022/03/23 11:18:26;;;;;;;20.97;19.47;;;15.50;1.00;;;;;;5015481;28;20413;-69
2022/03/23 11:20:53;;;;;;;20.40;19.10;;;15.50;1.00;;;;;;5015362;28;20492;-69
2022/03/23 11:23:45;;;;;;;19.90;18.83;;;15.50;1.00;;;;;;5015260;28;20550;-69
2022/03/23 11:26:11;;;;;;;21.80;18.70;;;15.70;1.00;;;;;;5015151;28;20474;-69
2022/03/23 11:28:40;;;;;;;21.03;19.73;;;15.70;1.00;;;;;;5014982;28;20418;-69
2022/03/23 11:31:10;;;;;;;20.17;19.00;;;15.60;1.00;;;;;;4997743;28;20450;-68
2022/03/23 11:33:37;;;;;;;20.33;19.17;;;15.80;1.00;;;;;;5015258;28;20990;-69
2022/03/23 11:36:11;;;;;;;21.23;19.87;;;15.90;1.00;;;;;;5014933;28;20452;-70
2022/03/23 11:38:37;;;;;;;19.70;18.43;;;16.00;1.00;;;;;;5014818;28;20425;-72
2022/03/23 11:41:04;;;;;;;18.83;17.90;;;16.00;1.00;;;;;;5014988;28;20411;-70
2022/03/23 11:43:33;;;;;;;19.63;18.63;;;15.80;1.00;;;;;;5014953;28;20426;-69
2022/03/23 11:46:00;;;;;;;21.13;19.87;;;15.80;1.00;;;;;;4997021;28;20473;-70
2022/03/23 11:48:52;;;;;;;20.97;19.70;;;15.90;1.00;;;;;;4996847;28;20430;-70
2022/03/23 11:51:50;;;;;;;18.30;17.20;;;16.00;1.00;;;;;;5015105;28;20418;-70
2022/03/23 11:55:37;;;;;;;19.80;18.50;;;16.00;1.00;;;;;;5014885;28;20500;-70
2022/03/23 11:57:20;;;;;;;19.80;18.40;;;16.20;1.00;;;;;;5016874;28;20916;-70
2022/03/23 11:59:46;;;;;;;19.50;18.40;;;16.40;1.00;;;;;;5014896;28;20549;-70
2022/03/23 12:02:12;;;;;;;19.40;18.30;;;16.60;1.00;;;;;;5014726;28;20502;-71
2022/03/23 12:04:38;;;;;;;19.27;18.17;;;16.70;1.00;;;;;;5014732;28;20180;-70
2022/03/23 12:07:08;;;;;;;19.93;18.50;;;16.70;1.00;;;;;;5014119;28;20242;-71
2022/03/23 12:09:48;;;;;;;19.90;18.80;;;16.50;1.00;;;;;;5014191;28;20259;-70
2022/03/23 12:12:37;;;;;;;19.60;18.57;;;16.50;1.00;;;;;;5014030;28;20421;-68
2022/03/23 12:15:22;;;;;;;20.20;19.00;;;16.40;1.00;;;;;;5014151;28;20438;-70
2022/03/23 12:17:54;;;;;;;19.73;18.43;;;16.60;1.00;;;;;;5013976;28;20476;-69
2022/03/23 12:20:32;;;;;;;19.47;18.10;;;16.70;1.00;;;;;;4996798;28;20878;-69
2022/03/23 12:23:09;;;;;;;18.50;17.57;;;16.60;1.00;;;;;;4996656;28;20419;-69
2022/03/23 12:25:52;;;;;;;19.40;18.23;;;16.70;1.00;;;;;;4996304;28;20446;-70
2022/03/23 12:28:18;;;;;;;20.37;19.27;;;16.90;1.00;;;;;;5013833;28;20513;-69
2022/03/23 12:30:56;;;;;;;20.83;19.23;;;17.10;1.00;;;;;;5014221;28;20509;-69
2022/03/23 12:33:23;;;;;;;18.67;17.67;;;17.10;1.00;;;;;;5014002;28;20509;-70
2022/03/23 12:35:49;;;;;;;19.97;18.87;;;17.20;1.00;;;;;;5013883;28;20481;-69
2022/03/23 12:38:22;;;;;;;18.70;17.70;;;17.20;1.00;;;;;;5013666;28;20498;-69
2022/03/23 12:40:48;;;;;;;18.60;17.50;;;17.20;1.00;;;;;;5013812;28;20554;-69
2022/03/23 12:43:52;;;;;;;19.23;18.10;;;16.90;1.00;;;;;;5013773;28;20415;-72
2022/03/23 12:46:20;;;;;;;20.30;19.10;;;16.80;1.00;;;;;;4933880;29;20514;-72
2022/03/23 13:00:25;;;;;;;19.80;18.30;;;17.20;1.00;;;;;;5016673;28;20481;-70
2022/03/23 13:03:08;;;;;;;19.63;18.53;;;17.30;1.00;;;;;;5013515;28;20786;-70
2022/03/23 13:05:36;;;;;;;20.83;19.47;;;17.50;1.00;;;;;;5013061;28;20431;-72
2022/03/23 13:08:27;;;;;;;21.30;19.73;;;17.50;1.00;;;;;;5012934;28;20415;-70
2022/03/23 13:10:58;;;;;;;21.67;19.90;;;17.60;1.00;;;;;;5013300;28;20453;-70
2022/03/23 13:13:25;;;;;;;20.87;19.40;;;17.40;1.00;;;;;;5013070;28;20410;-69
2022/03/23 13:15:51;;;;;;;20.50;19.30;;;17.50;1.00;;;;;;5012769;28;20442;-72